sensor_id;sensor_type;location;lat;lon;timestamp;temperature;humidity
7576;DHT22;3829;50.798;4.358;2022-12-22T00:02:33;11.40;99.90
7576;DHT22;3829;50.798;4.358;2022-12-22T00:05:20;11.40;99.90
7576;DHT22;3829;50.798;4.358;2022-12-22T00:08:05;11.50;99.90
7576;DHT22;3829;50.798;4.358;2022-12-22T00:10:49;11.50;99.90
7576;DHT22;3829;50.798;4.358;2022-12-22T00:13:34;11.50;99.90
7576;DHT22;3829;50.798;4.358;2022-12-22T00:16:18;11.50;99.90
7576;DHT22;3829;50.798;4.358;2022-12-22T00:19:02;11.60;99.90
7576;DHT22;3829;50.798;4.358;2022-12-22T00:21:47;11.60;99.90
7576;DHT22;3829;50.798;4.358;2022-12-22T00:24:31;11.60;99.90
7576;DHT22;3829;50.798;4.358;2022-12-22T00:27:21;11.60;99.90
7576;DHT22;3829;50.798;4.358;2022-12-22T00:30:12;11.50;99.90
7576;DHT22;3829;50.798;4.358;2022-12-22T00:32:56;11.50;99.90
7576;DHT22;3829;50.798;4.358;2022-12-22T00:35:40;11.50;99.90
7576;DHT22;3829;50.798;4.358;2022-12-22T00:38:26;11.40;99.90
7576;DHT22;3829;50.798;4.358;2022-12-22T00:41:10;11.40;99.90
7576;DHT22;3829;50.798;4.358;2022-12-22T00:43:54;11.30;99.90
7576;DHT22;3829;50.798;4.358;2022-12-22T00:46:39;11.30;99.90
7576;DHT22;3829;50.798;4.358;2022-12-22T00:49:25;11.40;99.90
7576;DHT22;3829;50.798;4.358;2022-12-22T00:52:11;11.40;99.90
7576;DHT22;3829;50.798;4.358;2022-12-22T00:54:56;11.40;99.90
7576;DHT22;3829;50.798;4.358;2022-12-22T00:57:41;11.50;99.90
7576;DHT22;3829;50.798;4.358;2022-12-22T01:00:26;11.40;99.90
7576;DHT22;3829;50.798;4.358;2022-12-22T01:03:11;11.30;99.90
7576;DHT22;3829;50.798;4.358;2022-12-22T01:05:59;11.40;99.90
7576;DHT22;3829;50.798;4.358;2022-12-22T01:08:45;11.40;99.90
7576;DHT22;3829;50.798;4.358;2022-12-22T01:11:29;11.40;99.90
7576;DHT22;3829;50.798;4.358;2022-12-22T01:14:15;11.50;99.90
7576;DHT22;3829;50.798;4.358;2022-12-22T01:16:59;11.60;99.90
7576;DHT22;3829;50.798;4.358;2022-12-22T01:19:44;11.50;99.90
7576;DHT22;3829;50.798;4.358;2022-12-22T01:22:28;11.50;99.90
7576;DHT22;3829;50.798;4.358;2022-12-22T01:25:16;11.50;99.90
7576;DHT22;3829;50.798;4.358;2022-12-22T01:28:01;11.50;99.90
7576;DHT22;3829;50.798;4.358;2022-12-22T01:30:45;11.50;99.90
7576;DHT22;3829;50.798;4.358;2022-12-22T01:33:29;11.50;99.90
7576;DHT22;3829;50.798;4.358;2022-12-22T01:36:14;11.50;99.90
7576;DHT22;3829;50.798;4.358;2022-12-22T01:38:58;11.50;99.90
7576;DHT22;3829;50.798;4.358;2022-12-22T01:41:42;11.40;99.90
7576;DHT22;3829;50.798;4.358;2022-12-22T01:44:27;11.50;99.90
7576;DHT22;3829;50.798;4.358;2022-12-22T01:50:30;11.50;99.90
7576;DHT22;3829;50.798;4.358;2022-12-22T01:53:22;11.60;99.90
7576;DHT22;3829;50.798;4.358;2022-12-22T01:56:07;11.60;99.90
7576;DHT22;3829;50.798;4.358;2022-12-22T01:58:54;11.60;99.90
7576;DHT22;3829;50.798;4.358;2022-12-22T02:01:40;11.50;99.90
7576;DHT22;3829;50.798;4.358;2022-12-22T02:04:30;11.60;99.90
7576;DHT22;3829;50.798;4.358;2022-12-22T02:07:45;11.60;99.90
7576;DHT22;3829;50.798;4.358;2022-12-22T02:26:25;11.80;99.90
7576;DHT22;3829;50.798;4.358;2022-12-22T02:29:13;11.80;99.90
7576;DHT22;3829;50.798;4.358;2022-12-22T02:31:57;11.80;99.90
7576;DHT22;3829;50.798;4.358;2022-12-22T02:34:42;11.80;99.90
7576;DHT22;3829;50.798;4.358;2022-12-22T02:37:49;11.80;99.90
7576;DHT22;3829;50.798;4.358;2022-12-22T02:46:38;11.90;99.90
7576;DHT22;3829;50.798;4.358;2022-12-22T02:49:29;11.90;99.90
7576;DHT22;3829;50.798;4.358;2022-12-22T02:52:20;11.90;99.90
7576;DHT22;3829;50.798;4.358;2022-12-22T02:55:06;11.90;99.90
7576;DHT22;3829;50.798;4.358;2022-12-22T02:57:51;12.00;99.90
7576;DHT22;3829;50.798;4.358;2022-12-22T03:00:36;12.00;99.90
7576;DHT22;3829;50.798;4.358;2022-12-22T03:03:21;12.10;99.90
7576;DHT22;3829;50.798;4.358;2022-12-22T03:06:05;12.10;99.90
7576;DHT22;3829;50.798;4.358;2022-12-22T03:08:49;12.00;99.90
7576;DHT22;3829;50.798;4.358;2022-12-22T03:11:33;12.00;99.90
7576;DHT22;3829;50.798;4.358;2022-12-22T03:14:17;12.10;99.90
7576;DHT22;3829;50.798;4.358;2022-12-22T03:17:01;12.00;99.90
7576;DHT22;3829;50.798;4.358;2022-12-22T03:19:45;12.10;99.90
7576;DHT22;3829;50.798;4.358;2022-12-22T03:22:29;12.10;99.90
7576;DHT22;3829;50.798;4.358;2022-12-22T03:25:13;12.10;99.90
7576;DHT22;3829;50.798;4.358;2022-12-22T03:28:05;12.00;99.90
7576;DHT22;3829;50.798;4.358;2022-12-22T03:30:31;12.00;99.90
7576;DHT22;3829;50.798;4.358;2022-12-22T03:32:57;12.00;99.90
7576;DHT22;3829;50.798;4.358;2022-12-22T03:35:23;12.00;99.90
7576;DHT22;3829;50.798;4.358;2022-12-22T03:37:48;12.10;99.90
7576;DHT22;3829;50.798;4.358;2022-12-22T03:40:14;12.10;99.90
7576;DHT22;3829;50.798;4.358;2022-12-22T03:42:40;12.00;99.90
7576;DHT22;3829;50.798;4.358;2022-12-22T03:45:24;12.00;99.90
7576;DHT22;3829;50.798;4.358;2022-12-22T03:48:08;12.00;99.90
7576;DHT22;3829;50.798;4.358;2022-12-22T03:50:34;12.10;99.90
7576;DHT22;3829;50.798;4.358;2022-12-22T03:52:59;12.10;99.90
7576;DHT22;3829;50.798;4.358;2022-12-22T03:55:25;12.00;99.90
7576;DHT22;3829;50.798;4.358;2022-12-22T03:57:51;12.00;99.90
7576;DHT22;3829;50.798;4.358;2022-12-22T04:00:17;12.10;99.90
7576;DHT22;3829;50.798;4.358;2022-12-22T04:02:43;12.10;99.90
7576;DHT22;3829;50.798;4.358;2022-12-22T04:05:09;12.10;99.90
7576;DHT22;3829;50.798;4.358;2022-12-22T04:07:34;12.10;99.90
7576;DHT22;3829;50.798;4.358;2022-12-22T04:10:00;12.00;99.90
7576;DHT22;3829;50.798;4.358;2022-12-22T04:12:44;12.00;99.90
7576;DHT22;3829;50.798;4.358;2022-12-22T04:15:20;11.90;99.90
7576;DHT22;3829;50.798;4.358;2022-12-22T04:17:46;12.00;99.90
7576;DHT22;3829;50.798;4.358;2022-12-22T04:20:11;11.90;99.90
7576;DHT22;3829;50.798;4.358;2022-12-22T04:22:37;12.00;99.90
7576;DHT22;3829;50.798;4.358;2022-12-22T04:25:03;12.00;99.90
7576;DHT22;3829;50.798;4.358;2022-12-22T04:27:29;12.00;99.90
7576;DHT22;3829;50.798;4.358;2022-12-22T04:29:54;12.00;99.90
7576;DHT22;3829;50.798;4.358;2022-12-22T04:32:20;12.10;99.90
7576;DHT22;3829;50.798;4.358;2022-12-22T04:34:45;12.10;99.90
7576;DHT22;3829;50.798;4.358;2022-12-22T04:37:11;12.00;99.90
7576;DHT22;3829;50.798;4.358;2022-12-22T04:39:37;12.10;99.90
7576;DHT22;3829;50.798;4.358;2022-12-22T04:42:02;12.00;99.90
7576;DHT22;3829;50.798;4.358;2022-12-22T04:44:28;12.00;99.90
7576;DHT22;3829;50.798;4.358;2022-12-22T04:46:53;12.00;99.90
7576;DHT22;3829;50.798;4.358;2022-12-22T04:49:19;12.00;99.90
7576;DHT22;3829;50.798;4.358;2022-12-22T04:51:44;12.00;99.90
7576;DHT22;3829;50.798;4.358;2022-12-22T04:54:10;12.00;99.90
7576;DHT22;3829;50.798;4.358;2022-12-22T04:56:36;12.00;99.90
7576;DHT22;3829;50.798;4.358;2022-12-22T04:59:02;11.90;99.90
7576;DHT22;3829;50.798;4.358;2022-12-22T05:01:27;11.90;99.90
7576;DHT22;3829;50.798;4.358;2022-12-22T05:03:53;11.90;99.90
7576;DHT22;3829;50.798;4.358;2022-12-22T05:06:18;11.90;99.90
7576;DHT22;3829;50.798;4.358;2022-12-22T05:08:44;11.80;99.90
7576;DHT22;3829;50.798;4.358;2022-12-22T05:11:10;11.70;99.90
7576;DHT22;3829;50.798;4.358;2022-12-22T05:13:35;11.70;99.90
7576;DHT22;3829;50.798;4.358;2022-12-22T05:16:03;11.80;99.90
7576;DHT22;3829;50.798;4.358;2022-12-22T05:18:29;11.70;99.90
7576;DHT22;3829;50.798;4.358;2022-12-22T05:20:55;11.70;99.90
7576;DHT22;3829;50.798;4.358;2022-12-22T05:23:20;11.60;99.90
7576;DHT22;3829;50.798;4.358;2022-12-22T05:25:46;11.60;99.90
7576;DHT22;3829;50.798;4.358;2022-12-22T05:28:11;11.60;99.90
7576;DHT22;3829;50.798;4.358;2022-12-22T05:30:39;11.70;99.90
7576;DHT22;3829;50.798;4.358;2022-12-22T05:33:05;11.70;99.90
7576;DHT22;3829;50.798;4.358;2022-12-22T05:35:31;11.70;99.90
7576;DHT22;3829;50.798;4.358;2022-12-22T05:37:56;11.70;99.90
7576;DHT22;3829;50.798;4.358;2022-12-22T05:40:22;11.60;99.90
7576;DHT22;3829;50.798;4.358;2022-12-22T05:42:48;11.60;99.90
7576;DHT22;3829;50.798;4.358;2022-12-22T05:45:18;11.60;99.90
7576;DHT22;3829;50.798;4.358;2022-12-22T05:47:46;11.60;99.90
7576;DHT22;3829;50.798;4.358;2022-12-22T05:50:13;11.70;99.90
7576;DHT22;3829;50.798;4.358;2022-12-22T05:52:39;11.70;99.90
7576;DHT22;3829;50.798;4.358;2022-12-22T05:55:05;11.70;99.90
7576;DHT22;3829;50.798;4.358;2022-12-22T05:57:31;11.60;99.90
7576;DHT22;3829;50.798;4.358;2022-12-22T05:59:57;11.50;99.90
7576;DHT22;3829;50.798;4.358;2022-12-22T06:02:23;11.40;99.90
7576;DHT22;3829;50.798;4.358;2022-12-22T06:04:48;11.50;99.90
7576;DHT22;3829;50.798;4.358;2022-12-22T06:07:14;11.40;99.90
7576;DHT22;3829;50.798;4.358;2022-12-22T06:09:39;11.40;99.90
7576;DHT22;3829;50.798;4.358;2022-12-22T06:12:05;11.30;99.90
7576;DHT22;3829;50.798;4.358;2022-12-22T06:14:31;11.30;99.90
7576;DHT22;3829;50.798;4.358;2022-12-22T06:16:57;11.40;99.90
7576;DHT22;3829;50.798;4.358;2022-12-22T06:19:23;11.30;99.90
7576;DHT22;3829;50.798;4.358;2022-12-22T06:21:48;11.20;99.90
7576;DHT22;3829;50.798;4.358;2022-12-22T06:24:14;11.20;99.90
7576;DHT22;3829;50.798;4.358;2022-12-22T06:26:39;11.30;99.90
7576;DHT22;3829;50.798;4.358;2022-12-22T06:29:05;11.30;99.90
7576;DHT22;3829;50.798;4.358;2022-12-22T06:31:31;11.40;99.90
7576;DHT22;3829;50.798;4.358;2022-12-22T06:33:56;11.20;99.90
7576;DHT22;3829;50.798;4.358;2022-12-22T06:36:22;11.30;99.90
7576;DHT22;3829;50.798;4.358;2022-12-22T06:38:47;11.30;99.90
7576;DHT22;3829;50.798;4.358;2022-12-22T06:41:14;11.30;99.90
7576;DHT22;3829;50.798;4.358;2022-12-22T06:43:59;11.20;99.90
7576;DHT22;3829;50.798;4.358;2022-12-22T06:46:25;11.20;99.90
7576;DHT22;3829;50.798;4.358;2022-12-22T06:48:51;11.20;99.90
7576;DHT22;3829;50.798;4.358;2022-12-22T06:51:16;11.20;99.90
7576;DHT22;3829;50.798;4.358;2022-12-22T06:53:42;11.10;99.90
7576;DHT22;3829;50.798;4.358;2022-12-22T06:56:07;11.20;99.90
7576;DHT22;3829;50.798;4.358;2022-12-22T06:58:33;11.10;99.90
7576;DHT22;3829;50.798;4.358;2022-12-22T07:00:58;11.00;99.90
7576;DHT22;3829;50.798;4.358;2022-12-22T07:03:24;11.00;99.90
7576;DHT22;3829;50.798;4.358;2022-12-22T07:05:49;10.90;99.90
7576;DHT22;3829;50.798;4.358;2022-12-22T07:08:15;11.00;99.90
7576;DHT22;3829;50.798;4.358;2022-12-22T07:10:41;11.00;99.90
7576;DHT22;3829;50.798;4.358;2022-12-22T07:13:30;10.90;99.90
7576;DHT22;3829;50.798;4.358;2022-12-22T07:15:57;10.90;99.90
7576;DHT22;3829;50.798;4.358;2022-12-22T07:18:23;10.90;99.90
7576;DHT22;3829;50.798;4.358;2022-12-22T07:20:49;10.90;99.90
7576;DHT22;3829;50.798;4.358;2022-12-22T07:23:14;11.00;99.90
7576;DHT22;3829;50.798;4.358;2022-12-22T07:25:41;11.00;99.90
7576;DHT22;3829;50.798;4.358;2022-12-22T07:28:07;10.90;99.90
7576;DHT22;3829;50.798;4.358;2022-12-22T07:30:33;10.70;99.90
7576;DHT22;3829;50.798;4.358;2022-12-22T07:33:01;10.60;99.90
7576;DHT22;3829;50.798;4.358;2022-12-22T07:35:26;10.70;99.90
7576;DHT22;3829;50.798;4.358;2022-12-22T07:37:52;10.70;99.90
7576;DHT22;3829;50.798;4.358;2022-12-22T07:40:17;10.70;99.90
7576;DHT22;3829;50.798;4.358;2022-12-22T07:42:43;10.70;99.90
7576;DHT22;3829;50.798;4.358;2022-12-22T07:45:18;10.70;99.90
7576;DHT22;3829;50.798;4.358;2022-12-22T07:47:44;10.80;99.90
7576;DHT22;3829;50.798;4.358;2022-12-22T07:50:12;10.80;99.90
7576;DHT22;3829;50.798;4.358;2022-12-22T07:52:56;10.90;99.90
7576;DHT22;3829;50.798;4.358;2022-12-22T07:55:24;11.00;99.90
7576;DHT22;3829;50.798;4.358;2022-12-22T07:57:50;10.80;99.90
7576;DHT22;3829;50.798;4.358;2022-12-22T08:00:17;10.60;99.90
7576;DHT22;3829;50.798;4.358;2022-12-22T08:02:51;10.50;99.90
7576;DHT22;3829;50.798;4.358;2022-12-22T08:05:17;10.40;99.90
7576;DHT22;3829;50.798;4.358;2022-12-22T08:07:43;10.40;99.90
7576;DHT22;3829;50.798;4.358;2022-12-22T08:10:10;10.20;99.90
7576;DHT22;3829;50.798;4.358;2022-12-22T08:12:36;10.20;99.90
7576;DHT22;3829;50.798;4.358;2022-12-22T08:15:02;10.20;99.90
7576;DHT22;3829;50.798;4.358;2022-12-22T08:17:28;10.10;99.90
7576;DHT22;3829;50.798;4.358;2022-12-22T08:19:54;10.10;99.90
7576;DHT22;3829;50.798;4.358;2022-12-22T08:22:20;10.00;99.90
7576;DHT22;3829;50.798;4.358;2022-12-22T08:24:52;10.00;99.90
7576;DHT22;3829;50.798;4.358;2022-12-22T08:27:22;10.00;99.90
7576;DHT22;3829;50.798;4.358;2022-12-22T08:29:52;10.00;99.90
7576;DHT22;3829;50.798;4.358;2022-12-22T08:32:19;10.00;99.90
7576;DHT22;3829;50.798;4.358;2022-12-22T08:34:45;10.00;99.90
7576;DHT22;3829;50.798;4.358;2022-12-22T08:37:15;10.10;99.90
7576;DHT22;3829;50.798;4.358;2022-12-22T08:39:44;10.20;99.90
7576;DHT22;3829;50.798;4.358;2022-12-22T08:42:12;10.20;99.90
7576;DHT22;3829;50.798;4.358;2022-12-22T08:44:39;10.30;99.90
7576;DHT22;3829;50.798;4.358;2022-12-22T08:47:05;10.30;99.90
7576;DHT22;3829;50.798;4.358;2022-12-22T08:49:31;10.30;99.90
7576;DHT22;3829;50.798;4.358;2022-12-22T08:51:57;10.30;99.90
7576;DHT22;3829;50.798;4.358;2022-12-22T08:54:23;10.30;99.90
7576;DHT22;3829;50.798;4.358;2022-12-22T08:56:49;10.20;99.90
7576;DHT22;3829;50.798;4.358;2022-12-22T08:59:15;10.20;99.90
7576;DHT22;3829;50.798;4.358;2022-12-22T09:01:42;10.20;99.90
7576;DHT22;3829;50.798;4.358;2022-12-22T09:04:11;10.20;99.90
7576;DHT22;3829;50.798;4.358;2022-12-22T09:06:37;10.30;99.90
7576;DHT22;3829;50.798;4.358;2022-12-22T09:09:05;10.30;99.90
7576;DHT22;3829;50.798;4.358;2022-12-22T09:11:32;10.30;99.90
7576;DHT22;3829;50.798;4.358;2022-12-22T09:13:59;10.40;99.90
7576;DHT22;3829;50.798;4.358;2022-12-22T09:16:27;10.40;99.90
7576;DHT22;3829;50.798;4.358;2022-12-22T09:18:53;10.40;99.90
7576;DHT22;3829;50.798;4.358;2022-12-22T09:21:20;10.40;99.90
7576;DHT22;3829;50.798;4.358;2022-12-22T09:23:46;10.40;99.90
7576;DHT22;3829;50.798;4.358;2022-12-22T09:26:15;10.50;99.90
7576;DHT22;3829;50.798;4.358;2022-12-22T09:28:40;10.50;99.90
7576;DHT22;3829;50.798;4.358;2022-12-22T09:31:06;10.70;99.90
7576;DHT22;3829;50.798;4.358;2022-12-22T09:33:33;10.60;99.90
7576;DHT22;3829;50.798;4.358;2022-12-22T09:36:05;10.60;99.90
7576;DHT22;3829;50.798;4.358;2022-12-22T09:38:31;10.50;99.90
7576;DHT22;3829;50.798;4.358;2022-12-22T09:40:56;10.40;99.90
7576;DHT22;3829;50.798;4.358;2022-12-22T09:43:28;10.30;99.90
7576;DHT22;3829;50.798;4.358;2022-12-22T09:45:55;10.20;99.90
7576;DHT22;3829;50.798;4.358;2022-12-22T09:48:22;10.40;99.90
7576;DHT22;3829;50.798;4.358;2022-12-22T09:50:49;10.50;99.90
7576;DHT22;3829;50.798;4.358;2022-12-22T09:53:21;10.20;99.90
7576;DHT22;3829;50.798;4.358;2022-12-22T09:55:48;10.30;99.90
7576;DHT22;3829;50.798;4.358;2022-12-22T09:58:24;10.10;99.90
7576;DHT22;3829;50.798;4.358;2022-12-22T10:00:58;10.10;99.90
7576;DHT22;3829;50.798;4.358;2022-12-22T10:03:59;10.00;99.90
7576;DHT22;3829;50.798;4.358;2022-12-22T10:06:27;9.80;99.90
7576;DHT22;3829;50.798;4.358;2022-12-22T10:08:53;9.70;99.90
7576;DHT22;3829;50.798;4.358;2022-12-22T10:11:19;9.70;99.90
7576;DHT22;3829;50.798;4.358;2022-12-22T10:13:45;9.60;99.90
7576;DHT22;3829;50.798;4.358;2022-12-22T10:16:25;9.50;99.90
7576;DHT22;3829;50.798;4.358;2022-12-22T10:19:05;9.60;99.90
7576;DHT22;3829;50.798;4.358;2022-12-22T10:21:31;9.60;99.90
7576;DHT22;3829;50.798;4.358;2022-12-22T10:23:57;9.70;99.90
7576;DHT22;3829;50.798;4.358;2022-12-22T10:26:28;9.70;99.90
7576;DHT22;3829;50.798;4.358;2022-12-22T10:29:06;9.60;99.90
7576;DHT22;3829;50.798;4.358;2022-12-22T10:31:36;9.50;99.90
7576;DHT22;3829;50.798;4.358;2022-12-22T10:34:14;9.50;99.90
7576;DHT22;3829;50.798;4.358;2022-12-22T10:36:49;9.70;99.90
7576;DHT22;3829;50.798;4.358;2022-12-22T10:39:21;9.80;99.90
7576;DHT22;3829;50.798;4.358;2022-12-22T10:41:49;9.70;99.90
7576;DHT22;3829;50.798;4.358;2022-12-22T10:46:44;9.70;99.90
7576;DHT22;3829;50.798;4.358;2022-12-22T10:49:32;9.60;99.90
7576;DHT22;3829;50.798;4.358;2022-12-22T10:52:21;9.60;99.90
7576;DHT22;3829;50.798;4.358;2022-12-22T10:54:48;9.70;99.90
7576;DHT22;3829;50.798;4.358;2022-12-22T10:59:59;9.60;99.90
7576;DHT22;3829;50.798;4.358;2022-12-22T11:02:35;9.90;99.90
7576;DHT22;3829;50.798;4.358;2022-12-22T11:05:09;10.10;99.90
7576;DHT22;3829;50.798;4.358;2022-12-22T11:07:41;10.20;99.90
7576;DHT22;3829;50.798;4.358;2022-12-22T11:15:55;10.60;99.90
7576;DHT22;3829;50.798;4.358;2022-12-22T11:21:07;10.70;99.90
7576;DHT22;3829;50.798;4.358;2022-12-22T11:27:03;10.90;99.90
7576;DHT22;3829;50.798;4.358;2022-12-22T11:35:34;10.70;99.90
7576;DHT22;3829;50.798;4.358;2022-12-22T11:40:59;10.60;99.90
7576;DHT22;3829;50.798;4.358;2022-12-22T11:44:05;10.70;99.90
7576;DHT22;3829;50.798;4.358;2022-12-22T12:00:15;11.00;99.90
7576;DHT22;3829;50.798;4.358;2022-12-22T12:03:14;10.80;99.90
7576;DHT22;3829;50.798;4.358;2022-12-22T12:05:55;10.80;99.90
7576;DHT22;3829;50.798;4.358;2022-12-22T12:21:55;11.00;99.90
7576;DHT22;3829;50.798;4.358;2022-12-22T12:30:18;11.30;99.90
7576;DHT22;3829;50.798;4.358;2022-12-22T12:32:58;11.60;99.90
7576;DHT22;3829;50.798;4.358;2022-12-22T12:35:51;11.70;99.90
7576;DHT22;3829;50.798;4.358;2022-12-22T12:38:39;11.80;99.90
7576;DHT22;3829;50.798;4.358;2022-12-22T12:43:53;11.80;99.90
7576;DHT22;3829;50.798;4.358;2022-12-22T12:51:58;11.70;99.90
7576;DHT22;3829;50.798;4.358;2022-12-22T12:59:46;11.40;99.90
7576;DHT22;3829;50.798;4.358;2022-12-22T13:02:31;11.20;99.90
7576;DHT22;3829;50.798;4.358;2022-12-22T13:10:30;10.80;99.90
7576;DHT22;3829;50.798;4.358;2022-12-22T13:12:56;10.70;99.90
7576;DHT22;3829;50.798;4.358;2022-12-22T13:15:29;10.60;99.90
7576;DHT22;3829;50.798;4.358;2022-12-22T13:17:56;10.60;99.90
7576;DHT22;3829;50.798;4.358;2022-12-22T13:20:40;10.40;99.90
7576;DHT22;3829;50.798;4.358;2022-12-22T13:23:11;10.30;99.90
7576;DHT22;3829;50.798;4.358;2022-12-22T13:25:52;10.30;99.90
7576;DHT22;3829;50.798;4.358;2022-12-22T13:28:19;10.30;99.90
7576;DHT22;3829;50.798;4.358;2022-12-22T13:31:15;10.30;99.90
7576;DHT22;3829;50.798;4.358;2022-12-22T13:33:42;10.40;99.90
7576;DHT22;3829;50.798;4.358;2022-12-22T13:36:17;10.50;99.90
7576;DHT22;3829;50.798;4.358;2022-12-22T13:38:43;10.50;99.90
7576;DHT22;3829;50.798;4.358;2022-12-22T13:41:19;10.50;99.90
7576;DHT22;3829;50.798;4.358;2022-12-22T13:43:59;10.50;99.90
7576;DHT22;3829;50.798;4.358;2022-12-22T13:46:29;10.60;99.90
7576;DHT22;3829;50.798;4.358;2022-12-22T13:48:57;10.60;99.90
7576;DHT22;3829;50.798;4.358;2022-12-22T13:51:31;10.60;99.90
7576;DHT22;3829;50.798;4.358;2022-12-22T13:54:02;10.70;99.90
7576;DHT22;3829;50.798;4.358;2022-12-22T13:59:00;10.70;99.90
7576;DHT22;3829;50.798;4.358;2022-12-22T14:01:26;10.70;99.90
7576;DHT22;3829;50.798;4.358;2022-12-22T14:03:54;10.70;99.90
7576;DHT22;3829;50.798;4.358;2022-12-22T14:06:26;10.80;99.90
7576;DHT22;3829;50.798;4.358;2022-12-22T14:08:53;10.80;99.90
7576;DHT22;3829;50.798;4.358;2022-12-22T14:11:19;10.80;99.90
7576;DHT22;3829;50.798;4.358;2022-12-22T14:13:45;10.80;99.90
7576;DHT22;3829;50.798;4.358;2022-12-22T14:16:12;10.90;99.90
7576;DHT22;3829;50.798;4.358;2022-12-22T14:18:39;10.90;99.90
7576;DHT22;3829;50.798;4.358;2022-12-22T14:21:06;11.00;99.90
7576;DHT22;3829;50.798;4.358;2022-12-22T14:23:34;11.10;99.90
7576;DHT22;3829;50.798;4.358;2022-12-22T14:26:04;11.00;99.90
7576;DHT22;3829;50.798;4.358;2022-12-22T14:28:51;11.00;99.90
7576;DHT22;3829;50.798;4.358;2022-12-22T14:31:18;11.00;99.90
7576;DHT22;3829;50.798;4.358;2022-12-22T14:33:55;11.10;99.90
7576;DHT22;3829;50.798;4.358;2022-12-22T14:36:23;11.10;99.90
7576;DHT22;3829;50.798;4.358;2022-12-22T14:38:50;11.20;99.90
7576;DHT22;3829;50.798;4.358;2022-12-22T14:41:21;11.20;99.90
7576;DHT22;3829;50.798;4.358;2022-12-22T14:44:17;11.20;99.90
7576;DHT22;3829;50.798;4.358;2022-12-22T14:46:44;11.20;99.90
7576;DHT22;3829;50.798;4.358;2022-12-22T14:49:14;11.30;99.90
7576;DHT22;3829;50.798;4.358;2022-12-22T14:51:41;11.30;99.90
7576;DHT22;3829;50.798;4.358;2022-12-22T14:54:21;11.40;99.90
7576;DHT22;3829;50.798;4.358;2022-12-22T14:56:49;11.40;99.90
7576;DHT22;3829;50.798;4.358;2022-12-22T14:59:24;11.30;99.90
7576;DHT22;3829;50.798;4.358;2022-12-22T15:01:59;11.40;99.90
7576;DHT22;3829;50.798;4.358;2022-12-22T15:04:24;11.40;99.90
7576;DHT22;3829;50.798;4.358;2022-12-22T15:06:50;11.40;99.90
7576;DHT22;3829;50.798;4.358;2022-12-22T15:12:03;11.40;99.90
7576;DHT22;3829;50.798;4.358;2022-12-22T15:14:29;11.30;99.90
7576;DHT22;3829;50.798;4.358;2022-12-22T15:16:58;11.40;99.90
7576;DHT22;3829;50.798;4.358;2022-12-22T15:19:30;11.40;99.90
7576;DHT22;3829;50.798;4.358;2022-12-22T15:21:56;11.40;99.90
7576;DHT22;3829;50.798;4.358;2022-12-22T15:24:22;11.40;99.90
7576;DHT22;3829;50.798;4.358;2022-12-22T15:26:48;11.50;99.90
7576;DHT22;3829;50.798;4.358;2022-12-22T15:29:13;11.40;99.90
7576;DHT22;3829;50.798;4.358;2022-12-22T15:31:40;11.50;99.90
7576;DHT22;3829;50.798;4.358;2022-12-22T15:34:24;11.40;99.90
7576;DHT22;3829;50.798;4.358;2022-12-22T15:36:50;11.40;99.90
7576;DHT22;3829;50.798;4.358;2022-12-22T15:39:17;11.40;99.90
7576;DHT22;3829;50.798;4.358;2022-12-22T15:41:43;11.50;99.90
7576;DHT22;3829;50.798;4.358;2022-12-22T15:44:10;11.60;99.90
7576;DHT22;3829;50.798;4.358;2022-12-22T15:46:37;11.50;99.90
7576;DHT22;3829;50.798;4.358;2022-12-22T15:49:03;11.60;99.90
7576;DHT22;3829;50.798;4.358;2022-12-22T15:51:29;11.60;99.90
7576;DHT22;3829;50.798;4.358;2022-12-22T15:53:56;11.60;99.90
7576;DHT22;3829;50.798;4.358;2022-12-22T15:56:24;11.60;99.90
7576;DHT22;3829;50.798;4.358;2022-12-22T15:58:50;11.70;99.90
7576;DHT22;3829;50.798;4.358;2022-12-22T16:01:16;11.60;99.90
7576;DHT22;3829;50.798;4.358;2022-12-22T16:03:42;11.60;99.90
7576;DHT22;3829;50.798;4.358;2022-12-22T16:06:15;11.60;99.90
7576;DHT22;3829;50.798;4.358;2022-12-22T16:08:43;11.60;99.90
7576;DHT22;3829;50.798;4.358;2022-12-22T16:11:10;11.50;99.90
7576;DHT22;3829;50.798;4.358;2022-12-22T16:13:36;11.50;99.90
7576;DHT22;3829;50.798;4.358;2022-12-22T16:16:03;11.50;99.90
7576;DHT22;3829;50.798;4.358;2022-12-22T16:18:29;11.50;99.90
7576;DHT22;3829;50.798;4.358;2022-12-22T16:20:56;11.50;99.90
7576;DHT22;3829;50.798;4.358;2022-12-22T16:23:25;11.40;99.90
7576;DHT22;3829;50.798;4.358;2022-12-22T16:25:53;11.40;99.90
7576;DHT22;3829;50.798;4.358;2022-12-22T16:28:23;11.40;99.90
7576;DHT22;3829;50.798;4.358;2022-12-22T16:30:49;11.30;99.90
7576;DHT22;3829;50.798;4.358;2022-12-22T16:33:16;11.30;99.90
7576;DHT22;3829;50.798;4.358;2022-12-22T16:35:42;11.30;99.90
7576;DHT22;3829;50.798;4.358;2022-12-22T16:38:08;11.30;99.90
7576;DHT22;3829;50.798;4.358;2022-12-22T16:40:40;11.40;99.90
7576;DHT22;3829;50.798;4.358;2022-12-22T16:43:18;11.40;99.90
7576;DHT22;3829;50.798;4.358;2022-12-22T16:45:45;11.40;99.90
7576;DHT22;3829;50.798;4.358;2022-12-22T16:48:33;11.40;99.90
7576;DHT22;3829;50.798;4.358;2022-12-22T16:50:59;11.40;99.90
7576;DHT22;3829;50.798;4.358;2022-12-22T16:53:25;11.40;99.90
7576;DHT22;3829;50.798;4.358;2022-12-22T16:55:52;11.40;99.90
7576;DHT22;3829;50.798;4.358;2022-12-22T16:58:18;11.30;99.90
7576;DHT22;3829;50.798;4.358;2022-12-22T17:00:45;11.40;99.90
7576;DHT22;3829;50.798;4.358;2022-12-22T17:03:17;11.40;99.90
7576;DHT22;3829;50.798;4.358;2022-12-22T17:05:50;11.50;99.90
7576;DHT22;3829;50.798;4.358;2022-12-22T17:08:33;11.40;99.90
7576;DHT22;3829;50.798;4.358;2022-12-22T17:11:01;11.30;99.90
7576;DHT22;3829;50.798;4.358;2022-12-22T17:13:28;11.40;99.90
7576;DHT22;3829;50.798;4.358;2022-12-22T17:15:54;11.40;99.90
7576;DHT22;3829;50.798;4.358;2022-12-22T17:18:22;11.40;99.90
7576;DHT22;3829;50.798;4.358;2022-12-22T17:20:51;11.40;99.90
7576;DHT22;3829;50.798;4.358;2022-12-22T17:23:48;11.30;99.90
7576;DHT22;3829;50.798;4.358;2022-12-22T17:26:18;11.30;99.90
7576;DHT22;3829;50.798;4.358;2022-12-22T17:28:46;11.30;99.90
7576;DHT22;3829;50.798;4.358;2022-12-22T17:31:19;11.40;99.90
7576;DHT22;3829;50.798;4.358;2022-12-22T17:33:45;11.30;99.90
7576;DHT22;3829;50.798;4.358;2022-12-22T17:38:54;11.40;99.90
7576;DHT22;3829;50.798;4.358;2022-12-22T17:41:20;11.40;99.90
7576;DHT22;3829;50.798;4.358;2022-12-22T17:43:46;11.40;99.90
7576;DHT22;3829;50.798;4.358;2022-12-22T17:46:17;11.40;99.90
7576;DHT22;3829;50.798;4.358;2022-12-22T17:48:44;11.50;99.90
7576;DHT22;3829;50.798;4.358;2022-12-22T17:51:23;11.40;99.90
7576;DHT22;3829;50.798;4.358;2022-12-22T17:53:50;11.50;99.90
7576;DHT22;3829;50.798;4.358;2022-12-22T17:56:18;11.40;99.90
7576;DHT22;3829;50.798;4.358;2022-12-22T17:58:44;11.50;99.90
7576;DHT22;3829;50.798;4.358;2022-12-22T18:01:30;11.40;99.90
7576;DHT22;3829;50.798;4.358;2022-12-22T18:03:57;11.30;99.90
7576;DHT22;3829;50.798;4.358;2022-12-22T18:06:25;11.40;99.90
7576;DHT22;3829;50.798;4.358;2022-12-22T18:08:53;11.30;99.90
7576;DHT22;3829;50.798;4.358;2022-12-22T18:11:20;11.30;99.90
7576;DHT22;3829;50.798;4.358;2022-12-22T18:13:45;11.20;99.90
7576;DHT22;3829;50.798;4.358;2022-12-22T18:16:17;11.20;99.90
7576;DHT22;3829;50.798;4.358;2022-12-22T18:18:43;11.30;99.90
7576;DHT22;3829;50.798;4.358;2022-12-22T18:21:16;11.40;99.90
7576;DHT22;3829;50.798;4.358;2022-12-22T18:23:43;11.30;99.90
7576;DHT22;3829;50.798;4.358;2022-12-22T18:26:16;11.40;99.90